Stolt Jade — ZCSQ4 — position and weather

sailwx.info

Track history (hours):
 
Tides and Currents Weather Stations Pressure Air Temp Water Temp Dewpoint Dewpoint Depression Visibility Wind Speed Wind Dir Waves Ship Positions

Stolt Jade

Last reported at 2014-Oct-31 16:11 UTC. Time now 2014-Oct-31 16:51 UTC.
Position N 29°47' E 122°25'.

Length 175 m; draft 9.6 m.

Type: Ship (hazmat cat B). MMSI: 319439000.

Date/timePositionNaut miles runAvg speedWind from/ knotsBaromVisibWave heightAir tempDewpointWater temp
2014-Oct-31 16:11N 29°47' E 122°25'0 0.1
2014-Oct-31 15:32N 29°47' E 122°25'0 0.1
2014-Oct-31 14:32N 29°47' E 122°25'0 0.1
2014-Oct-31 13:32N 29°47' E 122°25'0 0.0
2014-Oct-31 12:23N 29°47' E 122°25'0 0.0
2014-Oct-31 11:05N 29°47' E 122°25'0 0.0
2014-Oct-31 10:05N 29°47' E 122°25'0 0.1
2014-Oct-31 07:29N 29°47' E 122°25'0 0.0
2014-Oct-31 02:33N 29°47' E 122°25'6 5.6
2014-Oct-31 01:33N 29°45' E 122°31'1212.4
2014-Oct-31 00:33N 29°46' E 122°45'  
2014-Oct-24 22:28N 32°07' E 132°40'16712.0
2014-Oct-24 08:33N 34°08' E 134°57'1412.8
2014-Oct-24 07:27N 34°22' E 135°00'1313.9
2014-Oct-24 06:33N 34°31' E 135°11'10 9.9
2014-Oct-24 05:31N 34°39' E 135°18'0 0.0
2014-Oct-24 04:31N 34°39' E 135°18'0 0.1
2014-Oct-24 03:25N 34°39' E 135°18'0 0.0
2014-Oct-24 02:25N 34°39' E 135°18'0 0.0
2014-Oct-24 01:31N 34°39' E 135°18'0 0.0
2014-Oct-24 00:31N 34°39' E 135°18'0 0.0
2014-Oct-23 23:25N 34°39' E 135°18'0 0.0
2014-Oct-23 22:25N 34°39' E 135°18'0 0.1
2014-Oct-23 21:31N 34°39' E 135°18'0 0.0
2014-Oct-23 20:31N 34°39' E 135°18'0 0.1
2014-Oct-23 19:19N 34°39' E 135°18'0 0.0
2014-Oct-23 18:25N 34°39' E 135°18'0 0.1
2014-Oct-23 17:31N 34°39' E 135°18'0 0.0
2014-Oct-23 16:31N 34°39' E 135°18'0 0.0
2014-Oct-23 15:25N 34°39' E 135°18'0 0.0
2014-Oct-23 14:31N 34°39' E 135°18'0 0.0
2014-Oct-23 13:31N 34°39' E 135°18'0 0.0
2014-Oct-23 12:31N 34°39' E 135°18'0 0.1
2014-Oct-23 11:31N 34°39' E 135°18'0 0.0
2014-Oct-23 10:30N 34°39' E 135°18'0 0.0
2014-Oct-23 09:30N 34°39' E 135°18'0 0.0
2014-Oct-23 08:30N 34°39' E 135°18'0 0.0
2014-Oct-23 07:30N 34°39' E 135°18'0 0.0
2014-Oct-23 06:30N 34°39' E 135°18'0 0.0
2014-Oct-23 05:24N 34°39' E 135°18'0 0.0
2014-Oct-23 04:30N 34°39' E 135°18'0 0.0
2014-Oct-23 03:30N 34°39' E 135°18'0 0.0
2014-Oct-23 02:30N 34°39' E 135°18'0 0.0
2014-Oct-23 01:18N 34°39' E 135°18'0 0.1
2014-Oct-23 00:18N 34°39' E 135°18'2 2.3
2014-Oct-22 23:33N 34°37' E 135°18'1111.2
2014-Oct-22 22:33N 34°29' E 135°09'1312.7
2014-Oct-22 21:32N 34°18' E 134°60'1010.6
2014-Oct-22 20:34N 34°08' E 134°60'8 8.3
2014-Oct-22 19:33N 33°60' E 134°59'  
Track history (hours):
 
Tides and Currents Weather Stations Pressure Air Temp Water Temp Dewpoint Dewpoint Depression Visibility Wind Speed Wind Dir Waves Ship Positions

Stolt Jade

Last reported at 2014-Oct-31 16:11 UTC. Time now 2014-Oct-31 16:51 UTC.
Position N 29°47' E 122°25'.

Length 175 m; draft 9.6 m.

Type: Ship (hazmat cat B). MMSI: 319439000.

Date/timePositionNaut miles runAvg speedWind from/ knotsBaromVisibWave heightAir tempDewpointWater temp
2014-Oct-31 16:11N 29°47' E 122°25'0 0.1
2014-Oct-31 15:32N 29°47' E 122°25'0 0.1
2014-Oct-31 14:32N 29°47' E 122°25'0 0.1
2014-Oct-31 13:32N 29°47' E 122°25'0 0.0
2014-Oct-31 12:23N 29°47' E 122°25'0 0.0
2014-Oct-31 11:05N 29°47' E 122°25'0 0.0
2014-Oct-31 10:05N 29°47' E 122°25'0 0.1
2014-Oct-31 07:29N 29°47' E 122°25'0 0.0
2014-Oct-31 02:33N 29°47' E 122°25'6 5.6
2014-Oct-31 01:33N 29°45' E 122°31'1212.4
2014-Oct-31 00:33N 29°46' E 122°45'  
2014-Oct-24 22:28N 32°07' E 132°40'16712.0
2014-Oct-24 08:33N 34°08' E 134°57'1412.8
2014-Oct-24 07:27N 34°22' E 135°00'1313.9
2014-Oct-24 06:33N 34°31' E 135°11'10 9.9
2014-Oct-24 05:31N 34°39' E 135°18'0 0.0
2014-Oct-24 04:31N 34°39' E 135°18'0 0.1
2014-Oct-24 03:25N 34°39' E 135°18'0 0.0
2014-Oct-24 02:25N 34°39' E 135°18'0 0.0
2014-Oct-24 01:31N 34°39' E 135°18'0 0.0
2014-Oct-24 00:31N 34°39' E 135°18'0 0.0
2014-Oct-23 23:25N 34°39' E 135°18'0 0.0
2014-Oct-23 22:25N 34°39' E 135°18'0 0.1
2014-Oct-23 21:31N 34°39' E 135°18'0 0.0
2014-Oct-23 20:31N 34°39' E 135°18'0 0.1
2014-Oct-23 19:19N 34°39' E 135°18'0 0.0
2014-Oct-23 18:25N 34°39' E 135°18'0 0.1
2014-Oct-23 17:31N 34°39' E 135°18'0 0.0
2014-Oct-23 16:31N 34°39' E 135°18'0 0.0
2014-Oct-23 15:25N 34°39' E 135°18'0 0.0
2014-Oct-23 14:31N 34°39' E 135°18'0 0.0
2014-Oct-23 13:31N 34°39' E 135°18'0 0.0
2014-Oct-23 12:31N 34°39' E 135°18'0 0.1
2014-Oct-23 11:31N 34°39' E 135°18'0 0.0
2014-Oct-23 10:30N 34°39' E 135°18'0 0.0
2014-Oct-23 09:30N 34°39' E 135°18'0 0.0
2014-Oct-23 08:30N 34°39' E 135°18'0 0.0
2014-Oct-23 07:30N 34°39' E 135°18'0 0.0
2014-Oct-23 06:30N 34°39' E 135°18'0 0.0
2014-Oct-23 05:24N 34°39' E 135°18'0 0.0
2014-Oct-23 04:30N 34°39' E 135°18'0 0.0
2014-Oct-23 03:30N 34°39' E 135°18'0 0.0
2014-Oct-23 02:30N 34°39' E 135°18'0 0.0
2014-Oct-23 01:18N 34°39' E 135°18'0 0.1
2014-Oct-23 00:18N 34°39' E 135°18'2 2.3
2014-Oct-22 23:33N 34°37' E 135°18'1111.2
2014-Oct-22 22:33N 34°29' E 135°09'1312.7
2014-Oct-22 21:32N 34°18' E 134°60'1010.6
2014-Oct-22 20:34N 34°08' E 134°60'8 8.3
2014-Oct-22 19:33N 33°60' E 134°59'  

Dump ship's entire track history